Time;durP1;ratioP1;P1;durP2;ratioP2;P2;SDS_P1;SDS_P2;PMS_P1;PMS_P2;Temp;Humidity;BMP_temperature;BMP_pressure;BME280_temperature;BME280_humidity;BME280_pressure;Samples;Min_cycle;Max_cycle;Signal;HPM_P1;HPM_P2
2021/01/23 00:01:20;;;;;;;37.93;21.27;;;;;;;4.32;81.09;99042.84;1735669;80;26458;-76
2021/01/23 00:03:47;;;;;;;40.05;21.62;;;;;;;4.25;81.23;99036.62;1733114;80;25917;-77
2021/01/23 00:06:15;;;;;;;41.50;24.50;;;;;;;4.21;81.29;99036.67;1719028;80;28506;-76
2021/01/23 00:08:42;;;;;;;47.25;24.35;;;;;;;4.17;81.41;99039.38;1716595;80;25850;-77
2021/01/23 00:11:09;;;;;;;47.50;24.70;;;;;;;4.20;81.48;99044.29;1734858;81;25422;-78
2021/01/23 00:13:37;;;;;;;48.65;27.60;;;;;;;4.21;81.49;99043.30;1755987;80;25844;-76
2021/01/23 00:16:05;;;;;;;57.45;38.78;;;;;;;4.23;81.56;99049.23;1728191;81;26458;-76
2021/01/23 00:18:32;;;;;;;60.43;40.45;;;;;;;4.26;81.70;99052.83;1719886;80;27615;-76
2021/01/23 00:20:59;;;;;;;65.28;39.30;;;;;;;4.28;81.83;99046.84;1726946;82;25987;-77
2021/01/23 00:23:27;;;;;;;60.23;34.73;;;;;;;4.29;81.72;99047.17;1740335;82;25965;-77
2021/01/23 00:25:54;;;;;;;45.50;29.23;;;;;;;4.30;81.64;99049.63;1727464;81;25839;-78
2021/01/23 00:28:22;;;;;;;50.15;27.22;;;;;;;4.30;81.63;99046.97;1703592;82;25803;-77
2021/01/23 00:30:49;;;;;;;49.15;26.55;;;;;;;4.29;81.54;99048.49;1737339;80;27586;-77
2021/01/23 00:33:16;;;;;;;42.65;24.75;;;;;;;4.22;81.45;99047.08;1719324;80;25818;-76
2021/01/23 00:35:44;;;;;;;39.95;24.07;;;;;;;4.19;81.48;99047.96;1703675;81;25896;-76
2021/01/23 00:38:11;;;;;;;40.67;24.40;;;;;;;4.18;81.57;99047.63;1697279;81;26688;-76
2021/01/23 00:40:38;;;;;;;43.80;26.60;;;;;;;4.18;81.80;99047.13;1722149;82;25768;-77
2021/01/23 00:43:06;;;;;;;49.67;26.75;;;;;;;4.16;81.73;99041.69;1667626;82;26497;-77
2021/01/23 00:45:33;;;;;;;44.63;26.70;;;;;;;4.16;81.83;99045.17;1700018;81;26543;-76
2021/01/23 00:48:10;;;;;;;52.40;27.87;;;;;;;4.17;81.91;99040.17;1701009;81;26217;-77
2021/01/23 00:50:46;;;;;;;50.80;28.60;;;;;;;4.22;81.77;99055.53;1829677;77;25771;-76
2021/01/23 00:53:14;;;;;;;58.85;30.30;;;;;;;4.17;81.85;99056.07;1778135;80;25782;-77
2021/01/23 00:55:42;;;;;;;52.00;28.98;;;;;;;4.18;82.10;99063.03;1765333;80;27592;-77
2021/01/23 00:58:09;;;;;;;50.60;28.40;;;;;;;4.20;82.31;99070.30;1721600;82;26272;-77
2021/01/23 01:00:37;;;;;;;51.08;26.10;;;;;;;4.17;81.91;99073.83;1699142;81;26393;-77
2021/01/23 01:03:05;;;;;;;46.13;25.43;;;;;;;4.05;81.34;99072.12;1712842;81;25836;-76
2021/01/23 01:05:37;;;;;;;44.73;27.13;;;;;;;3.99;81.45;99071.53;1757209;80;25787;-77
2021/01/23 01:08:05;;;;;;;44.53;24.75;;;;;;;3.93;81.58;99068.78;1684256;80;27597;-77
2021/01/23 01:10:32;;;;;;;44.53;25.70;;;;;;;3.89;81.29;99062.52;1714522;81;26401;-76
2021/01/23 01:13:00;;;;;;;46.55;24.02;;;;;;;3.86;81.09;99076.13;1740754;81;25405;-78
2021/01/23 01:15:27;;;;;;;48.23;26.07;;;;;;;3.83;81.13;99073.84;1725506;81;25395;-77
2021/01/23 01:17:54;;;;;;;46.23;27.05;;;;;;;3.83;81.23;99079.13;1691992;81;26103;-76
2021/01/23 01:20:22;;;;;;;47.95;27.22;;;;;;;3.81;81.44;99079.81;1691439;81;27537;-77
2021/01/23 01:22:49;;;;;;;43.78;25.60;;;;;;;3.78;81.26;99082.84;1706430;82;25960;-76
2021/01/23 01:25:16;;;;;;;46.02;26.73;;;;;;;3.75;81.30;99081.87;1735803;81;26501;-77
2021/01/23 01:27:44;;;;;;;46.23;26.93;;;;;;;3.73;81.47;99086.52;1695460;81;25928;-77
2021/01/23 01:30:12;;;;;;;44.40;24.80;;;;;;;3.69;81.40;99094.50;1704276;81;26514;-77
2021/01/23 01:32:40;;;;;;;42.43;24.85;;;;;;;3.66;81.53;99097.50;1748110;81;28019;-77
2021/01/23 01:35:08;;;;;;;45.20;24.90;;;;;;;3.65;81.45;99100.34;1736236;81;25935;-76
2021/01/23 01:37:36;;;;;;;50.60;27.37;;;;;;;3.65;81.37;99097.69;1674702;81;25958;-76
2021/01/23 01:40:06;;;;;;;55.35;31.00;;;;;;;3.65;81.42;99096.36;1684137;82;25710;-77
2021/01/23 01:42:33;;;;;;;44.90;25.32;;;;;;;3.66;81.51;99104.12;1719343;81;25880;-77
2021/01/23 01:45:01;;;;;;;40.95;23.47;;;;;;;3.59;80.94;99106.35;1740571;81;28183;-78
2021/01/23 01:47:28;;;;;;;46.02;25.20;;;;;;;3.42;80.49;99102.98;1698869;81;26183;-77
2021/01/23 01:49:58;;;;;;;48.75;26.90;;;;;;;3.35;80.41;99108.69;1710177;82;25890;-76
2021/01/23 01:52:25;;;;;;;54.67;30.43;;;;;;;3.29;80.37;99105.92;1695928;83;25840;-76
2021/01/23 01:54:53;;;;;;;55.73;31.05;;;;;;;3.19;80.60;99102.17;1720756;82;26583;-76
2021/01/23 01:57:22;;;;;;;55.88;30.43;;;;;;;3.19;80.81;99106.14;1700163;81;27554;-76
2021/01/23 01:59:50;;;;;;;51.65;28.75;;;;;;;3.18;80.90;99104.52;1689936;81;25966;-77
2021/01/23 02:02:51;;;;;;;49.53;29.12;;;;;;;3.09;80.85;99097.62;1725947;81;25984;-76
2021/01/23 02:05:49;;;;;;;53.08;28.55;;;;;;;3.06;80.83;99109.87;1734873;81;25842;-77
2021/01/23 02:08:54;;;;;;;51.53;29.80;;;;;;;3.03;80.96;99097.84;1729594;80;25786;-77
2021/01/23 02:11:39;;;;;;;54.23;27.62;;;;;;;3.03;81.07;99108.91;1721795;82;27527;-76
2021/01/23 02:14:16;;;;;;;43.28;25.12;;;;;;;3.02;81.21;99106.77;1724058;82;25860;-77
2021/01/23 02:16:47;;;;;;;41.88;25.12;;;;;;;2.93;80.79;99118.91;1707321;83;25928;-76
2021/01/23 02:19:29;;;;;;;38.28;23.70;;;;;;;2.89;80.95;99120.22;1739820;80;25898;-76
2021/01/23 02:22:38;;;;;;;46.75;25.15;;;;;;;2.82;80.75;99108.71;1744003;80;25768;-76
2021/01/23 02:25:06;;;;;;;50.05;30.10;;;;;;;2.87;80.81;99127.50;1702311;82;28476;-76
2021/01/23 02:28:08;;;;;;;51.73;30.02;;;;;;;2.86;80.82;99125.88;1722592;82;26042;-76
2021/01/23 02:30:46;;;;;;;54.25;29.90;;;;;;;2.84;80.59;99124.73;1747566;80;25789;-77
2021/01/23 02:33:15;;;;;;;54.03;31.23;;;;;;;2.81;80.56;99137.45;1734362;81;25783;-78
2021/01/23 02:35:44;;;;;;;59.38;32.08;;;;;;;2.79;80.54;99135.48;1687472;82;26098;-77
2021/01/23 02:38:13;;;;;;;66.90;35.13;;;;;;;2.80;80.56;99135.83;1691842;82;28589;-76
2021/01/23 02:40:40;;;;;;;67.90;34.65;;;;;;;2.81;80.87;99136.14;1700040;82;25858;-77
2021/01/23 02:43:08;;;;;;;54.53;30.30;;;;;;;2.80;80.96;99140.59;1696458;82;26304;-77
2021/01/23 02:45:35;;;;;;;49.88;28.15;;;;;;;2.78;80.74;99135.17;1663140;83;26204;-76
2021/01/23 02:48:04;;;;;;;51.60;27.90;;;;;;;2.72;80.70;99137.16;1739957;81;25856;-76
2021/01/23 02:50:32;;;;;;;45.00;25.72;;;;;;;2.68;80.85;99134.05;1757677;80;28533;-77
2021/01/23 02:53:11;;;;;;;40.30;24.57;;;;;;;2.63;80.75;99134.25;1752679;81;25771;-77
2021/01/23 02:55:43;;;;;;;43.65;24.47;;;;;;;2.53;80.25;99133.61;1736277;81;25839;-77
2021/01/23 02:58:11;;;;;;;44.75;25.45;;;;;;;2.46;80.05;99132.15;1737580;82;25621;-77
2021/01/23 03:00:41;;;;;;;46.95;27.00;;;;;;;2.43;80.25;99123.75;1736839;81;25765;-75
2021/01/23 03:03:11;;;;;;;44.90;26.23;;;;;;;2.42;80.31;99126.08;1741971;81;27530;-76
2021/01/23 03:05:40;;;;;;;44.63;25.65;;;;;;;2.43;80.48;99125.91;1683548;82;25820;-76
2021/01/23 03:08:08;;;;;;;46.80;26.25;;;;;;;2.45;80.46;99132.33;1718241;82;26505;-76
2021/01/23 03:10:39;;;;;;;46.77;26.85;;;;;;;2.41;80.33;99133.17;1716900;82;25764;-77
2021/01/23 03:13:08;;;;;;;48.95;26.75;;;;;;;2.40;80.24;99129.36;1745978;81;25881;-78
2021/01/23 03:15:36;;;;;;;52.40;27.10;;;;;;;2.38;80.13;99132.67;1679801;82;27607;-77
2021/01/23 03:18:05;;;;;;;47.50;26.85;;;;;;;2.36;80.13;99136.81;1700395;82;26163;-75
2021/01/23 03:20:32;;;;;;;59.93;30.62;;;;;;;2.34;80.10;99150.70;1727811;81;25957;-77
2021/01/23 03:23:01;;;;;;;59.70;31.73;;;;;;;2.32;80.32;99143.44;1708219;81;25865;-78
2021/01/23 03:25:29;;;;;;;60.43;31.20;;;;;;;2.31;80.53;99138.64;1705314;81;25884;-76
2021/01/23 03:27:59;;;;;;;62.95;33.25;;;;;;;2.31;80.53;99125.92;1702147;81;27622;-77
2021/01/23 03:30:29;;;;;;;69.25;33.13;;;;;;;2.32;80.63;99119.17;1732649;80;25909;-77
2021/01/23 03:32:56;;;;;;;57.60;29.65;;;;;;;2.37;80.97;99123.12;1741728;81;25744;-76
2021/01/23 03:35:23;;;;;;;51.33;30.35;;;;;;;2.42;81.18;99132.69;1742885;78;25883;-77
2021/01/23 03:37:51;;;;;;;59.33;29.55;;;;;;;2.44;81.53;99136.78;1750789;78;26209;-78
2021/01/23 03:40:19;;;;;;;53.25;27.85;;;;;;;2.49;81.66;99138.92;1768868;78;27221;-77
2021/01/23 03:42:46;;;;;;;51.75;29.23;;;;;;;2.45;81.42;99132.33;1788921;78;26149;-76
2021/01/23 03:45:14;;;;;;;55.08;30.97;;;;;;;2.43;81.62;99129.03;1743161;78;25435;-75
2021/01/23 03:47:41;;;;;;;55.20;30.08;;;;;;;2.42;81.81;99121.59;1747629;78;26217;-77
2021/01/23 03:50:10;;;;;;;51.95;28.67;;;;;;;2.45;82.08;99124.40;1765827;80;25779;-77
2021/01/23 03:52:38;;;;;;;51.92;27.65;;;;;;;2.46;81.98;99120.25;1796814;78;28358;-77
2021/01/23 03:55:08;;;;;;;52.70;27.65;;;;;;;2.45;81.72;99120.44;1722014;78;25714;-77
2021/01/23 03:57:35;;;;;;;53.23;28.62;;;;;;;2.40;81.69;99113.51;1774104;78;25814;-76
2021/01/23 04:00:06;;;;;;;60.00;29.90;;;;;;;2.35;81.76;99116.69;1765168;79;26439;-78
2021/01/23 04:02:35;;;;;;;56.02;29.95;;;;;;;2.35;82.01;99118.02;1795436;78;25763;-77
2021/01/23 04:05:04;;;;;;;52.70;29.10;;;;;;;2.38;82.14;99112.86;1757549;78;28235;-77
2021/01/23 04:07:31;;;;;;;59.85;32.50;;;;;;;2.34;82.09;99109.75;1747472;79;26034;-77
2021/01/23 04:09:59;;;;;;;59.38;30.68;;;;;;;2.37;82.27;99113.87;1762858;79;25850;-78
2021/01/23 04:12:26;;;;;;;54.55;31.10;;;;;;;2.38;82.48;99118.14;1789663;79;26150;-75
2021/01/23 04:14:53;;;;;;;58.73;30.55;;;;;;;2.39;82.54;99115.84;1731412;80;25334;-77
2021/01/23 04:17:21;;;;;;;57.80;32.42;;;;;;;2.38;82.67;99105.77;1767132;78;27591;-77
2021/01/23 04:19:48;;;;;;;53.48;28.05;;;;;;;2.39;82.74;99094.21;1755266;78;26411;-76
2021/01/23 04:22:15;;;;;;;52.23;28.15;;;;;;;2.41;82.82;99081.66;1805321;78;25778;-76
2021/01/23 04:24:43;;;;;;;49.20;28.42;;;;;;;2.37;82.62;99075.06;1740092;80;25913;-77
2021/01/23 04:27:10;;;;;;;52.27;28.02;;;;;;;2.34;82.50;99097.86;1741826;78;25720;-77
2021/01/23 04:29:37;;;;;;;57.53;29.65;;;;;;;2.35;82.57;99091.59;1756601;78;27538;-78
2021/01/23 04:32:05;;;;;;;58.68;32.30;;;;;;;2.37;82.61;99092.23;1758745;78;25975;-77
2021/01/23 04:34:32;;;;;;;60.90;32.33;;;;;;;2.41;82.58;99084.78;1778880;79;25818;-76
2021/01/23 04:37:00;;;;;;;58.85;31.55;;;;;;;2.42;82.73;99075.36;1749320;80;25722;-76
2021/01/23 04:39:27;;;;;;;64.17;32.78;;;;;;;2.43;82.74;99076.19;1768601;79;25691;-77
2021/01/23 04:41:54;;;;;;;62.00;33.45;;;;;;;2.44;82.83;99063.31;1783912;79;27155;-77
2021/01/23 04:44:22;;;;;;;60.50;33.88;;;;;;;2.45;83.10;99056.52;1791167;79;26520;-76
2021/01/23 04:46:49;;;;;;;64.22;32.85;;;;;;;2.50;83.29;99058.66;1750275;78;25832;-76
2021/01/23 04:49:16;;;;;;;65.35;33.35;;;;;;;2.52;83.26;99050.88;1769575;80;25911;-76
2021/01/23 04:51:44;;;;;;;68.37;34.38;;;;;;;2.51;83.33;99046.58;1710134;80;25772;-76
2021/01/23 04:54:11;;;;;;;59.27;35.70;;;;;;;2.54;83.46;99033.03;1776740;80;27521;-77
2021/01/23 04:56:38;;;;;;;61.55;34.13;;;;;;;2.58;83.49;99043.58;1712716;80;26348;-76
2021/01/23 04:59:06;;;;;;;56.10;31.73;;;;;;;2.61;83.63;99036.60;1725121;81;26022;-76
2021/01/23 05:01:33;;;;;;;56.55;32.80;;;;;;;2.63;83.59;99027.20;1723422;80;25835;-77
2021/01/23 05:04:02;;;;;;;58.40;30.45;;;;;;;2.60;83.41;99024.89;1779833;80;25781;-78
2021/01/23 05:06:30;;;;;;;59.38;32.45;;;;;;;2.59;83.35;99018.78;1711805;80;27547;-76
2021/01/23 05:08:58;;;;;;;59.33;32.53;;;;;;;2.58;83.28;99017.14;1749247;80;25821;-75
2021/01/23 05:11:46;;;;;;;54.60;30.77;;;;;;;2.59;83.22;99008.73;1738834;80;25809;-75
2021/01/23 05:14:15;;;;;;;58.23;31.00;;;;;;;2.57;83.11;98998.80;1776586;80;25816;-77
2021/01/23 05:16:43;;;;;;;57.62;32.00;;;;;;;2.54;83.16;98996.03;1712531;80;25861;-77
2021/01/23 05:19:10;;;;;;;58.78;32.03;;;;;;;2.55;83.23;99000.30;1724476;80;27591;-77
2021/01/23 05:21:38;;;;;;;59.05;33.80;;;;;;;2.58;83.38;98989.39;1722987;80;25931;-76
2021/01/23 05:24:13;;;;;;;65.65;35.48;;;;;;;2.59;83.40;98987.05;1749435;80;25937;-77
2021/01/23 05:26:41;;;;;;;59.13;33.92;;;;;;;2.60;83.56;98979.47;1715629;80;25778;-77
2021/01/23 05:29:14;;;;;;;55.52;34.65;;;;;;;2.61;83.58;98982.41;1757343;80;25887;-78
2021/01/23 05:31:43;;;;;;;63.05;36.13;;;;;;;2.62;83.65;98980.11;1753630;80;27544;-76
2021/01/23 05:34:30;;;;;;;63.20;35.28;;;;;;;2.62;83.71;98982.75;1776250;80;25710;-76
2021/01/23 05:36:59;;;;;;;54.50;31.23;;;;;;;2.64;83.75;98981.25;1697658;80;25887;-77
2021/01/23 05:39:50;;;;;;;64.67;37.00;;;;;;;2.62;83.80;98983.25;1727284;80;26342;-77
2021/01/23 05:42:19;;;;;;;63.30;36.77;;;;;;;2.62;84.01;98980.60;1749217;80;25795;-76
2021/01/23 05:45:12;;;;;;;75.17;39.92;;;;;;;2.65;84.26;98989.52;1776467;80;27587;-76
2021/01/23 05:47:40;;;;;;;71.50;39.45;;;;;;;2.64;84.26;98982.08;1736893;80;25825;-75
2021/01/23 05:50:09;;;;;;;71.12;41.02;;;;;;;2.65;84.49;98989.52;1761275;78;26659;-77
2021/01/23 05:52:37;;;;;;;62.80;35.25;;;;;;;2.65;84.37;99001.41;1767968;78;25877;-76
2021/01/23 05:55:06;;;;;;;63.13;35.25;;;;;;;2.64;84.28;99012.97;1790467;79;25850;-77
2021/01/23 05:57:34;;;;;;;63.17;34.92;;;;;;;2.61;84.17;99006.20;1750316;79;27526;-77
2021/01/23 06:00:04;;;;;;;71.65;36.93;;;;;;;2.60;84.13;99016.96;1736984;80;25957;-76
2021/01/23 06:02:33;;;;;;;64.47;36.17;;;;;;;2.56;84.18;99015.17;1727426;81;25788;-77
2021/01/23 06:05:02;;;;;;;61.63;36.60;;;;;;;2.53;84.20;99006.75;1734215;81;26336;-76
2021/01/23 06:07:43;;;;;;;59.58;35.52;;;;;;;2.52;84.28;99008.59;1704821;80;26088;-77
2021/01/23 06:10:28;;;;;;;59.63;35.73;;;;;;;2.54;84.31;99015.02;1725239;81;27533;-77
2021/01/23 06:12:56;;;;;;;59.73;35.80;;;;;;;2.57;84.38;99014.16;1748367;81;25812;-76
2021/01/23 06:15:39;;;;;;;64.32;35.13;;;;;;;2.58;84.33;99018.95;1726005;81;26447;-77
2021/01/23 06:18:28;;;;;;;57.62;32.60;;;;;;;2.58;84.36;99021.60;1718764;82;26267;-77
2021/01/23 06:21:03;;;;;;;66.40;36.93;;;;;;;2.62;84.43;99013.16;1725771;81;25796;-77
2021/01/23 06:23:50;;;;;;;70.87;38.65;;;;;;;2.63;84.54;99010.02;1745128;81;28263;-76
2021/01/23 06:26:19;;;;;;;61.60;36.15;;;;;;;2.64;84.52;99001.91;1749052;81;26102;-76
2021/01/23 06:28:48;;;;;;;56.90;32.55;;;;;;;2.67;84.57;98990.99;1724747;81;26525;-77
2021/01/23 06:31:29;;;;;;;57.25;32.70;;;;;;;2.69;84.58;98984.20;1694461;81;26414;-76
2021/01/23 06:33:56;;;;;;;56.13;32.78;;;;;;;2.68;84.64;98985.18;1719211;82;25841;-78
2021/01/23 06:36:24;;;;;;;54.75;32.00;;;;;;;2.68;84.82;98979.89;1747972;81;27542;-78
2021/01/23 06:39:08;;;;;;;54.75;30.82;;;;;;;2.70;84.85;98991.95;1689803;81;26033;-75
2021/01/23 06:41:37;;;;;;;55.78;31.35;;;;;;;2.73;84.92;98990.78;1714939;82;26423;-78
2021/01/23 06:44:17;;;;;;;62.88;34.35;;;;;;;2.75;84.92;98986.13;1693163;81;26080;-79
2021/01/23 06:46:53;;;;;;;64.60;35.17;;;;;;;2.76;85.00;98981.19;1737654;81;26367;-77
2021/01/23 06:49:20;;;;;;;59.70;35.70;;;;;;;2.78;85.04;98977.86;1755773;80;28482;-75
2021/01/23 06:51:48;;;;;;;71.45;38.92;;;;;;;2.79;85.03;98977.67;1713460;81;26416;-76
2021/01/23 06:54:20;;;;;;;69.67;40.15;;;;;;;2.80;85.10;98974.02;1738300;81;26059;-77
2021/01/23 06:56:51;;;;;;;65.37;36.88;;;;;;;2.83;85.19;98967.06;1747593;81;26140;-78
2021/01/23 06:59:30;;;;;;;58.90;35.90;;;;;;;2.86;85.19;98965.89;1669068;82;25888;-76
2021/01/23 07:02:15;;;;;;;60.48;34.10;;;;;;;2.88;85.23;98962.08;1712534;82;28473;-77
2021/01/23 07:04:50;;;;;;;55.08;32.35;;;;;;;2.93;85.22;98955.73;1739694;81;26322;-76
2021/01/23 07:07:18;;;;;;;55.10;31.40;;;;;;;2.97;85.25;98948.29;1737343;81;25799;-77
2021/01/23 07:09:55;;;;;;;57.35;34.67;;;;;;;2.96;85.24;98950.10;1718544;81;25943;-77
2021/01/23 07:12:46;;;;;;;62.73;36.08;;;;;;;2.97;85.37;98955.70;1724047;80;25801;-77
2021/01/23 07:15:31;;;;;;;55.50;34.30;;;;;;;3.01;85.53;98953.54;1734590;80;27298;-77
2021/01/23 07:17:58;;;;;;;47.83;28.52;;;;;;;3.02;85.53;98947.23;1757145;80;25818;-77
2021/01/23 07:20:25;;;;;;;54.77;31.87;;;;;;;3.02;85.62;98930.04;1721322;80;25868;-76
2021/01/23 07:22:53;;;;;;;51.02;28.83;;;;;;;3.01;85.57;98927.92;1737325;80;26435;-77
2021/01/23 07:25:21;;;;;;;54.65;33.67;;;;;;;3.04;85.66;98928.86;1703484;80;26391;-77
2021/01/23 07:27:48;;;;;;;55.30;31.70;;;;;;;3.07;85.73;98943.56;1731631;81;27535;-77
2021/01/23 07:30:18;;;;;;;51.18;31.20;;;;;;;3.08;85.75;98943.38;1688901;83;25913;-77
2021/01/23 07:32:47;;;;;;;54.58;30.90;;;;;;;3.10;85.74;98937.92;1695148;81;25851;-76
2021/01/23 07:35:17;;;;;;;51.15;30.82;;;;;;;3.13;86.04;98936.23;1714806;81;26299;-76
2021/01/23 07:37:58;;;;;;;49.73;28.23;;;;;;;3.13;85.96;98921.18;1731721;81;25754;-77
2021/01/23 07:40:31;;;;;;;48.33;29.20;;;;;;;3.15;85.96;98919.67;1696164;81;27558;-77
2021/01/23 07:43:01;;;;;;;48.30;29.52;;;;;;;3.16;86.12;98910.75;1727668;81;26170;-78
2021/01/23 07:45:29;;;;;;;53.35;28.80;;;;;;;3.17;86.26;98911.55;1755042;81;25745;-75
2021/01/23 07:48:03;;;;;;;51.45;29.25;;;;;;;3.20;86.17;98899.29;1752331;81;25831;-76
2021/01/23 07:50:48;;;;;;;49.63;27.98;;;;;;;3.21;86.32;98883.75;1699627;80;26145;-77
2021/01/23 07:53:23;;;;;;;48.75;28.90;;;;;;;3.22;86.62;98893.31;1716022;81;27665;-77
2021/01/23 07:55:53;;;;;;;49.88;27.73;;;;;;;3.24;86.79;98880.72;1719952;81;25831;-77
2021/01/23 07:58:21;;;;;;;57.45;32.88;;;;;;;3.30;87.02;98882.63;1793119;78;25761;-78
2021/01/23 08:00:49;;;;;;;55.12;32.53;;;;;;;3.35;87.34;98893.51;1759922;78;26449;-77
2021/01/23 08:03:20;;;;;;;49.03;30.20;;;;;;;3.40;87.21;98887.97;1768277;80;25887;-77
2021/01/23 08:05:57;;;;;;;57.10;32.03;;;;;;;3.45;87.24;98885.61;1774690;79;27647;-78
2021/01/23 08:08:34;;;;;;;50.43;30.55;;;;;;;3.48;87.37;98878.64;1779292;78;25760;-77
2021/01/23 08:11:04;;;;;;;54.45;31.20;;;;;;;3.51;87.23;98879.58;1744976;81;25771;-77
2021/01/23 08:13:33;;;;;;;52.17;31.30;;;;;;;3.55;87.31;98885.34;1727497;81;25907;-77
2021/01/23 08:16:15;;;;;;;64.65;36.20;;;;;;;3.58;87.28;98887.11;1717185;81;25739;-78
2021/01/23 08:18:46;;;;;;;53.65;33.00;;;;;;;3.58;87.17;98868.58;1742438;78;27322;-77
2021/01/23 08:21:20;;;;;;;62.88;35.45;;;;;;;3.59;87.09;98860.94;1792349;78;25886;-78
2021/01/23 08:23:48;;;;;;;53.73;33.00;;;;;;;3.61;87.25;98850.19;1741911;78;25866;-77
2021/01/23 08:26:18;;;;;;;65.47;37.13;;;;;;;3.61;87.49;98848.38;1752175;78;26472;-80
2021/01/23 08:28:48;;;;;;;64.50;35.15;;;;;;;3.64;87.43;98853.77;1795291;78;25735;-80
2021/01/23 08:31:24;;;;;;;63.30;34.50;;;;;;;3.66;87.40;98851.27;1806935;78;28620;-80
2021/01/23 08:33:55;;;;;;;60.20;34.23;;;;;;;3.70;87.45;98850.41;1750551;80;25965;-81
2021/01/23 08:36:28;;;;;;;53.90;31.57;;;;;;;3.73;87.47;98850.84;1710331;81;25843;-81
2021/01/23 08:39:05;;;;;;;54.55;32.42;;;;;;;3.76;87.44;98848.34;1728156;81;25901;-81
2021/01/23 08:41:39;;;;;;;55.67;30.68;;;;;;;3.79;87.48;98843.98;1797120;78;26345;-81
2021/01/23 08:44:06;;;;;;;49.23;30.02;;;;;;;3.82;87.51;98823.75;1716075;80;27655;-81
2021/01/23 08:46:36;;;;;;;57.73;32.13;;;;;;;3.83;87.53;98833.33;1748513;80;26129;-81
2021/01/23 08:49:04;;;;;;;53.78;33.05;;;;;;;3.82;87.73;98837.83;1767935;78;25877;-81
2021/01/23 08:51:33;;;;;;;60.10;34.58;;;;;;;3.85;87.54;98826.01;1795768;78;26247;-81
2021/01/23 08:54:00;;;;;;;49.95;29.00;;;;;;;3.88;87.62;98838.89;1758243;80;25834;-81
2021/01/23 08:56:31;;;;;;;55.28;32.98;;;;;;;3.89;87.50;98833.92;1704719;81;27593;-81
2021/01/23 08:58:58;;;;;;;48.90;30.97;;;;;;;3.88;87.46;98839.72;1700311;81;25877;-81
2021/01/23 09:01:26;;;;;;;58.28;32.20;;;;;;;3.90;87.46;98842.17;1708293;81;25898;-80
2021/01/23 09:03:54;;;;;;;52.90;32.85;;;;;;;3.90;87.47;98850.95;1674856;81;25819;-80
2021/01/23 09:06:23;;;;;;;58.95;33.53;;;;;;;3.91;87.51;98843.83;1699352;81;26264;-81
2021/01/23 09:08:51;;;;;;;53.73;33.18;;;;;;;3.92;87.47;98846.78;1680948;81;27352;-81
2021/01/23 09:11:19;;;;;;;66.70;35.88;;;;;;;3.93;87.53;98845.78;1742373;81;25822;-81
2021/01/23 09:13:46;;;;;;;58.78;34.13;;;;;;;3.97;87.58;98846.22;1713113;81;25906;-81
2021/01/23 09:16:14;;;;;;;49.42;29.90;;;;;;;3.99;87.66;98841.06;1701850;81;25828;-81
2021/01/23 09:18:42;;;;;;;58.45;31.95;;;;;;;4.01;87.73;98833.74;1720747;82;26824;-80
2021/01/23 09:21:09;;;;;;;59.08;36.93;;;;;;;4.03;87.76;98827.75;1682859;81;27553;-85
2021/01/23 09:23:37;;;;;;;60.75;35.17;;;;;;;4.06;87.92;98835.34;1658736;81;26418;-83
2021/01/23 09:26:05;;;;;;;58.60;35.43;;;;;;;4.10;87.98;98820.70;1672264;83;25933;-86
2021/01/23 09:28:33;;;;;;;54.93;33.83;;;;;;;4.15;88.07;98811.66;1682546;83;26356;-77
2021/01/23 09:31:00;;;;;;;60.33;35.28;;;;;;;4.19;88.37;98816.89;1713317;83;26089;-77
2021/01/23 09:33:28;;;;;;;59.55;37.03;;;;;;;4.24;88.46;98813.67;1628834;83;27842;-81
2021/01/23 09:35:58;;;;;;;51.28;32.95;;;;;;;4.29;88.41;98816.09;1649420;83;25846;-81
2021/01/23 09:38:25;;;;;;;51.55;33.88;;;;;;;4.33;88.36;98818.67;1696198;83;25877;-80
2021/01/23 09:40:53;;;;;;;51.35;30.50;;;;;;;4.38;88.62;98825.56;1714840;81;25850;-81
2021/01/23 09:43:21;;;;;;;54.30;32.65;;;;;;;4.42;88.35;98818.86;1673872;81;25383;-80
2021/01/23 09:45:50;;;;;;;47.08;29.32;;;;;;;4.45;88.39;98812.34;1691631;83;27619;-81
2021/01/23 09:48:19;;;;;;;44.85;27.32;;;;;;;4.49;88.32;98810.97;1688426;81;26433;-81
2021/01/23 09:50:47;;;;;;;44.75;27.15;;;;;;;4.50;88.31;98798.84;1717013;81;25991;-81
2021/01/23 09:53:15;;;;;;;55.03;32.98;;;;;;;4.53;88.34;98794.98;1670389;83;25853;-81
2021/01/23 09:55:42;;;;;;;55.78;32.58;;;;;;;4.56;88.57;98804.70;1678859;81;26189;-80
2021/01/23 09:58:10;;;;;;;55.70;32.98;;;;;;;4.61;88.47;98806.77;1693585;81;27512;-81
2021/01/23 10:00:38;;;;;;;60.65;36.13;;;;;;;4.66;88.43;98812.33;1711125;81;25991;-81
2021/01/23 10:03:05;;;;;;;65.80;41.48;;;;;;;4.70;88.42;98810.93;1668422;81;25858;-82
2021/01/23 10:05:35;;;;;;;69.15;41.28;;;;;;;4.73;88.43;98803.89;1656855;83;25874;-81
2021/01/23 10:08:04;;;;;;;76.85;44.05;;;;;;;4.78;88.52;98809.95;1667192;85;25942;-81
2021/01/23 10:10:32;;;;;;;82.88;45.83;;;;;;;4.81;88.57;98812.23;1720027;81;28621;-81
2021/01/23 10:13:01;;;;;;;53.28;32.70;;;;;;;4.84;88.44;98829.89;1679275;83;25977;-81
2021/01/23 10:15:29;;;;;;;49.67;28.62;;;;;;;4.86;88.35;98821.73;1669840;83;25770;-81
2021/01/23 10:17:56;;;;;;;41.42;25.57;;;;;;;4.90;88.33;98826.46;1698608;81;26336;-81
2021/01/23 10:20:26;;;;;;;58.85;36.03;;;;;;;4.91;88.20;98814.02;1704151;80;25744;-81
2021/01/23 10:22:54;;;;;;;156.45;72.55;;;;;;;4.92;88.28;98816.48;1640255;83;28554;-81
2021/01/23 10:25:22;;;;;;;160.82;80.85;;;;;;;4.97;88.35;98820.70;1657817;83;25992;-80
2021/01/23 10:27:50;;;;;;;136.80;70.17;;;;;;;4.99;88.27;98809.39;1656175;83;26529;-81
2021/01/23 10:30:19;;;;;;;88.97;50.05;;;;;;;5.01;88.28;98810.51;1630203;85;26452;-81
2021/01/23 10:32:46;;;;;;;78.95;42.38;;;;;;;5.04;88.30;98800.34;1685366;83;25801;-79
2021/01/23 10:35:14;;;;;;;84.55;47.55;;;;;;;5.07;88.34;98808.43;1660872;83;27346;-82
2021/01/23 10:37:42;;;;;;;82.70;46.13;;;;;;;5.12;88.46;98804.16;1671227;84;25752;-81
2021/01/23 10:40:12;;;;;;;68.52;40.10;;;;;;;5.16;88.41;98804.08;1677791;84;25891;-81
2021/01/23 10:42:39;;;;;;;68.78;38.30;;;;;;;5.20;88.38;98806.65;1622342;85;25895;-81
2021/01/23 10:45:09;;;;;;;75.78;40.80;;;;;;;5.23;88.30;98804.95;1642996;84;25441;-80
2021/01/23 10:47:37;;;;;;;102.50;53.55;;;;;;;5.24;88.22;98802.59;1642884;84;27362;-80
2021/01/23 10:50:10;;;;;;;112.97;60.60;;;;;;;5.25;88.33;98800.26;1689042;84;26386;-80
2021/01/23 10:52:37;;;;;;;120.15;61.10;;;;;;;5.28;88.27;98801.17;1638925;86;25988;-79
2021/01/23 10:55:07;;;;;;;101.85;53.25;;;;;;;5.30;88.25;98793.03;1673214;84;25878;-81
2021/01/23 10:57:34;;;;;;;77.78;44.18;;;;;;;5.32;88.26;98792.33;1669159;84;25858;-81
2021/01/23 11:00:05;;;;;;;650.27;254.40;;;;;;;5.34;88.22;98795.60;1709907;82;27598;-80
2021/01/23 11:02:33;;;;;;;1085.03;408.60;;;;;;;5.34;88.26;98808.38;1661635;83;25398;-80
2021/01/23 11:05:00;;;;;;;220.37;94.77;;;;;;;5.37;88.17;98801.83;1662602;83;26379;-80
2021/01/23 11:07:28;;;;;;;111.32;55.30;;;;;;;5.37;88.08;98798.67;1679542;83;26296;-81
2021/01/23 11:09:56;;;;;;;1534.28;532.60;;;;;;;5.40;88.12;98790.83;1701991;83;25749;-81
2021/01/23 11:12:23;;;;;;;265.07;118.37;;;;;;;5.40;88.13;98781.53;1661154;83;27548;-80
2021/01/23 11:14:51;;;;;;;104.92;57.03;;;;;;;5.41;88.13;98769.38;1685094;83;25859;-79
2021/01/23 11:17:20;;;;;;;66.00;40.35;;;;;;;5.41;88.26;98768.55;1684054;83;25732;-81
2021/01/23 11:19:49;;;;;;;82.12;43.33;;;;;;;5.44;88.41;98754.39;1678044;83;25904;-81
2021/01/23 11:22:17;;;;;;;75.90;49.10;;;;;;;5.47;88.30;98751.85;1685053;83;25408;-80
2021/01/23 11:24:45;;;;;;;68.37;42.90;;;;;;;5.48;88.27;98745.51;1685351;83;28450;-82
2021/01/23 11:27:15;;;;;;;77.27;52.30;;;;;;;5.49;88.30;98738.66;1685181;83;25461;-81
2021/01/23 11:29:42;;;;;;;517.22;183.62;;;;;;;5.50;88.33;98736.83;1709697;83;25439;-81
2021/01/23 11:32:10;;;;;;;509.45;189.65;;;;;;;5.51;88.32;98735.83;1639244;83;25870;-81
2021/01/23 11:34:37;;;;;;;158.70;96.10;;;;;;;5.52;88.30;98729.48;1639130;83;25439;-81
2021/01/23 11:37:05;;;;;;;62.13;40.03;;;;;;;5.53;88.24;98717.86;1628909;85;28501;-82
2021/01/23 11:39:32;;;;;;;59.38;34.53;;;;;;;5.53;88.22;98718.36;1669635;83;26582;-81